createdAt,value
2023-01-06T08:27:10.317Z,10.80
2023-01-06T08:29:38.367Z,10.80
2023-01-06T08:32:10.829Z,10.80
2023-01-06T08:34:39.207Z,10.90
2023-01-06T08:37:07.288Z,11.00
2023-01-06T08:39:35.470Z,11.00
2023-01-06T08:42:03.622Z,11.00
2023-01-06T08:44:33.094Z,11.00
2023-01-06T08:47:01.213Z,11.00
2023-01-06T08:49:29.315Z,11.00
2023-01-06T08:51:57.409Z,11.10
2023-01-06T08:54:25.622Z,11.10
2023-01-06T08:56:53.680Z,11.10
2023-01-06T08:59:21.734Z,11.10
2023-01-06T09:01:52.037Z,11.20
2023-01-06T09:04:20.263Z,11.20
2023-01-06T09:06:48.393Z,11.30
2023-01-06T09:09:16.604Z,11.30
2023-01-06T09:11:45.513Z,11.40
2023-01-06T09:14:14.612Z,11.40
2023-01-06T09:16:43.002Z,11.40
2023-01-06T09:19:12.397Z,11.40
2023-01-06T09:21:42.876Z,11.40
2023-01-06T09:24:13.968Z,11.40
2023-01-06T09:26:42.307Z,11.40
2023-01-06T09:29:10.371Z,11.40
2023-01-06T09:31:38.462Z,11.40
2023-01-06T09:34:06.522Z,11.40
2023-01-06T09:36:36.191Z,11.40
2023-01-06T09:39:04.355Z,11.40
2023-01-06T09:41:51.085Z,11.40
2023-01-06T09:44:23.877Z,11.40
2023-01-06T09:46:53.544Z,11.40
2023-01-06T09:49:28.752Z,11.50
2023-01-06T09:52:02.550Z,11.50
2023-01-06T09:54:34.590Z,11.50
2023-01-06T09:57:06.786Z,11.50
2023-01-06T09:59:41.141Z,11.50
2023-01-06T10:02:14.943Z,11.50
2023-01-06T10:04:43.392Z,11.50
2023-01-06T10:07:20.948Z,11.60
2023-01-06T10:09:59.897Z,11.60
2023-01-06T10:12:43.867Z,11.70
2023-01-06T10:15:21.392Z,11.70
2023-01-06T10:18:05.872Z,11.80
2023-01-06T10:20:46.325Z,11.80
2023-01-06T10:23:32.630Z,11.90
2023-01-06T10:26:06.986Z,12.00
2023-01-06T10:28:37.304Z,12.00
2023-01-06T10:31:09.337Z,12.10
2023-01-06T10:33:41.836Z,12.10
2023-01-06T10:36:13.627Z,12.20
2023-01-06T10:38:46.197Z,12.20
2023-01-06T10:41:22.039Z,12.20
2023-01-06T10:43:50.074Z,12.30
2023-01-06T10:46:18.391Z,12.40
2023-01-06T10:48:49.315Z,12.40
2023-01-06T10:51:36.128Z,12.50
2023-01-06T10:54:09.662Z,12.50
2023-01-06T10:56:39.791Z,12.60
2023-01-06T10:59:10.123Z,12.60
2023-01-06T11:01:50.118Z,12.60
2023-01-06T11:04:19.916Z,12.60
2023-01-06T11:06:51.597Z,12.60
2023-01-06T11:09:27.802Z,12.60
2023-01-06T11:11:58.291Z,12.50
2023-01-06T11:14:29.620Z,12.50
2023-01-06T11:17:01.157Z,12.50
2023-01-06T11:19:38.365Z,12.50
2023-01-06T11:22:07.508Z,12.50
2023-01-06T11:24:51.146Z,12.40
2023-01-06T11:27:19.248Z,12.40
2023-01-06T11:29:47.435Z,12.40
2023-01-06T11:32:19.563Z,12.40
2023-01-06T11:34:55.172Z,12.50
2023-01-06T11:37:32.563Z,12.50
2023-01-06T11:40:10.906Z,12.50
2023-01-06T11:45:34.022Z,12.60
2023-01-06T11:48:02.609Z,12.60
2023-01-06T11:50:31.119Z,12.60
2023-01-06T11:53:03.900Z,12.60
2023-01-06T11:55:33.347Z,12.60
2023-01-06T11:58:05.924Z,12.60
2023-01-06T12:00:47.311Z,12.60
2023-01-06T12:03:21.891Z,12.50
2023-01-06T12:05:57.771Z,12.50
2023-01-06T12:08:29.399Z,12.50
2023-01-06T12:11:06.282Z,12.50
2023-01-06T12:13:44.163Z,12.40
2023-01-06T12:16:17.544Z,12.40
2023-01-06T12:18:46.212Z,12.40
2023-01-06T12:21:19.365Z,12.40
2023-01-06T12:23:49.965Z,12.40
2023-01-06T12:26:25.145Z,12.40
2023-01-06T12:28:56.061Z,12.40
2023-01-06T12:31:30.018Z,12.40
2023-01-06T12:34:04.586Z,12.40
2023-01-06T12:36:39.317Z,12.50
2023-01-06T12:39:13.703Z,12.50
2023-01-06T12:41:48.527Z,12.50
2023-01-06T12:44:28.702Z,12.50
2023-01-06T12:47:02.629Z,12.60
2023-01-06T12:49:36.740Z,12.60
2023-01-06T12:52:09.066Z,12.60
2023-01-06T12:54:37.582Z,12.70
2023-01-06T12:57:18.514Z,12.70
2023-01-06T12:59:59.594Z,12.70
2023-01-06T13:02:44.466Z,12.70
2023-01-06T13:05:29.190Z,12.80
2023-01-06T13:08:11.763Z,12.70
2023-01-06T13:10:46.944Z,12.70
2023-01-06T13:13:47.900Z,12.70
2023-01-06T13:16:22.939Z,12.70
2023-01-06T13:19:00.666Z,12.60
2023-01-06T13:21:31.190Z,12.60
2023-01-06T13:24:16.056Z,12.60
2023-01-06T13:27:23.668Z,12.50
2023-01-06T13:30:16.834Z,12.50
2023-01-06T13:33:02.574Z,12.50
2023-01-06T13:35:51.769Z,12.50
2023-01-06T13:38:36.531Z,12.60
2023-01-06T13:41:13.233Z,12.60
2023-01-06T13:43:42.473Z,12.60
